sensor_id;sensor_type;location;lat;lon;timestamp;pressure;altitude;pressure_sealevel;temperature
11321;BMP180;5715;48.234;14.320;2023-04-28T00:00:58;98707.00;;;15.40
11321;BMP180;5715;48.234;14.320;2023-04-28T00:03:45;98709.00;;;15.40
11321;BMP180;5715;48.234;14.320;2023-04-28T00:06:35;98708.00;;;15.40
11321;BMP180;5715;48.234;14.320;2023-04-28T00:09:23;98701.00;;;15.50
11321;BMP180;5715;48.234;14.320;2023-04-28T00:12:11;98708.00;;;15.30
11321;BMP180;5715;48.234;14.320;2023-04-28T00:14:58;98707.00;;;15.20
11321;BMP180;5715;48.234;14.320;2023-04-28T00:17:46;98709.00;;;15.10
11321;BMP180;5715;48.234;14.320;2023-04-28T00:20:33;98708.00;;;14.90
11321;BMP180;5715;48.234;14.320;2023-04-28T00:23:21;98698.00;;;14.90
11321;BMP180;5715;48.234;14.320;2023-04-28T00:26:09;98699.00;;;14.90
11321;BMP180;5715;48.234;14.320;2023-04-28T00:28:58;98703.00;;;15.10
11321;BMP180;5715;48.234;14.320;2023-04-28T00:31:45;98696.00;;;15.10
11321;BMP180;5715;48.234;14.320;2023-04-28T00:34:33;98697.00;;;15.20
11321;BMP180;5715;48.234;14.320;2023-04-28T00:37:23;98699.00;;;15.30
11321;BMP180;5715;48.234;14.320;2023-04-28T00:40:11;98700.00;;;15.20
11321;BMP180;5715;48.234;14.320;2023-04-28T00:42:59;98696.00;;;15.30
11321;BMP180;5715;48.234;14.320;2023-04-28T00:45:50;98694.00;;;15.30
11321;BMP180;5715;48.234;14.320;2023-04-28T00:48:38;98681.00;;;15.40
11321;BMP180;5715;48.234;14.320;2023-04-28T00:51:26;98691.00;;;15.40
11321;BMP180;5715;48.234;14.320;2023-04-28T00:54:15;98688.00;;;15.40
11321;BMP180;5715;48.234;14.320;2023-04-28T00:57:04;98678.00;;;15.50
11321;BMP180;5715;48.234;14.320;2023-04-28T00:59:51;98679.00;;;15.50
11321;BMP180;5715;48.234;14.320;2023-04-28T01:02:39;98675.00;;;15.50
11321;BMP180;5715;48.234;14.320;2023-04-28T01:05:29;98676.00;;;15.40
11321;BMP180;5715;48.234;14.320;2023-04-28T01:08:22;98679.00;;;15.50
11321;BMP180;5715;48.234;14.320;2023-04-28T01:11:10;98673.00;;;15.50
11321;BMP180;5715;48.234;14.320;2023-04-28T01:14:00;98671.00;;;15.50
11321;BMP180;5715;48.234;14.320;2023-04-28T01:16:48;98676.00;;;15.30
11321;BMP180;5715;48.234;14.320;2023-04-28T01:19:35;98670.00;;;15.10
11321;BMP180;5715;48.234;14.320;2023-04-28T01:22:23;98672.00;;;15.40
11321;BMP180;5715;48.234;14.320;2023-04-28T01:25:11;98670.00;;;15.20
11321;BMP180;5715;48.234;14.320;2023-04-28T01:27:58;98668.00;;;15.30
11321;BMP180;5715;48.234;14.320;2023-04-28T01:30:46;98668.00;;;15.30
11321;BMP180;5715;48.234;14.320;2023-04-28T01:33:33;98664.00;;;15.20
11321;BMP180;5715;48.234;14.320;2023-04-28T01:36:21;98661.00;;;15.10
11321;BMP180;5715;48.234;14.320;2023-04-28T01:39:09;98657.00;;;15.00
11321;BMP180;5715;48.234;14.320;2023-04-28T01:41:57;98663.00;;;14.90
11321;BMP180;5715;48.234;14.320;2023-04-28T01:44:45;98659.00;;;14.80
11321;BMP180;5715;48.234;14.320;2023-04-28T01:47:32;98663.00;;;14.80
11321;BMP180;5715;48.234;14.320;2023-04-28T01:50:20;98650.00;;;14.80
11321;BMP180;5715;48.234;14.320;2023-04-28T01:53:07;98647.00;;;14.70
11321;BMP180;5715;48.234;14.320;2023-04-28T01:55:55;98658.00;;;14.60
11321;BMP180;5715;48.234;14.320;2023-04-28T01:58:44;98656.00;;;14.70
11321;BMP180;5715;48.234;14.320;2023-04-28T02:01:32;98660.00;;;14.70
11321;BMP180;5715;48.234;14.320;2023-04-28T02:04:19;98663.00;;;14.50
11321;BMP180;5715;48.234;14.320;2023-04-28T02:07:07;98662.00;;;14.80
11321;BMP180;5715;48.234;14.320;2023-04-28T02:09:55;98659.00;;;15.10
11321;BMP180;5715;48.234;14.320;2023-04-28T02:12:42;98654.00;;;15.20
11321;BMP180;5715;48.234;14.320;2023-04-28T02:15:30;98661.00;;;15.30
11321;BMP180;5715;48.234;14.320;2023-04-28T02:18:17;98669.00;;;15.20
11321;BMP180;5715;48.234;14.320;2023-04-28T02:21:09;98660.00;;;15.30
11321;BMP180;5715;48.234;14.320;2023-04-28T02:23:58;98662.00;;;15.30
11321;BMP180;5715;48.234;14.320;2023-04-28T02:26:45;98668.00;;;15.30
11321;BMP180;5715;48.234;14.320;2023-04-28T02:29:33;98679.00;;;15.20
11321;BMP180;5715;48.234;14.320;2023-04-28T02:32:21;98669.00;;;15.10
11321;BMP180;5715;48.234;14.320;2023-04-28T02:35:08;98662.00;;;15.10
11321;BMP180;5715;48.234;14.320;2023-04-28T02:37:56;98662.00;;;15.20
11321;BMP180;5715;48.234;14.320;2023-04-28T02:40:44;98660.00;;;15.20
11321;BMP180;5715;48.234;14.320;2023-04-28T02:43:32;98669.00;;;15.20
11321;BMP180;5715;48.234;14.320;2023-04-28T02:46:20;98659.00;;;15.10
11321;BMP180;5715;48.234;14.320;2023-04-28T02:49:08;98651.00;;;15.10
11321;BMP180;5715;48.234;14.320;2023-04-28T02:51:55;98653.00;;;15.20
11321;BMP180;5715;48.234;14.320;2023-04-28T02:54:43;98651.00;;;15.20
11321;BMP180;5715;48.234;14.320;2023-04-28T02:57:34;98648.00;;;15.20
11321;BMP180;5715;48.234;14.320;2023-04-28T03:00:22;98653.00;;;15.20
11321;BMP180;5715;48.234;14.320;2023-04-28T03:03:10;98649.00;;;15.40
11321;BMP180;5715;48.234;14.320;2023-04-28T03:05:58;98654.00;;;15.30
11321;BMP180;5715;48.234;14.320;2023-04-28T03:08:45;98642.00;;;15.40
11321;BMP180;5715;48.234;14.320;2023-04-28T03:11:33;98648.00;;;15.40
11321;BMP180;5715;48.234;14.320;2023-04-28T03:14:21;98646.00;;;15.40
11321;BMP180;5715;48.234;14.320;2023-04-28T03:17:08;98641.00;;;15.30
11321;BMP180;5715;48.234;14.320;2023-04-28T03:19:56;98640.00;;;15.20
11321;BMP180;5715;48.234;14.320;2023-04-28T03:22:43;98633.00;;;15.30
11321;BMP180;5715;48.234;14.320;2023-04-28T03:25:31;98629.00;;;15.30
11321;BMP180;5715;48.234;14.320;2023-04-28T03:28:18;98629.00;;;15.30
11321;BMP180;5715;48.234;14.320;2023-04-28T03:31:06;98624.00;;;15.30
11321;BMP180;5715;48.234;14.320;2023-04-28T03:33:53;98627.00;;;15.10
11321;BMP180;5715;48.234;14.320;2023-04-28T03:36:41;98625.00;;;15.00
11321;BMP180;5715;48.234;14.320;2023-04-28T03:39:28;98627.00;;;15.20
11321;BMP180;5715;48.234;14.320;2023-04-28T03:42:16;98616.00;;;14.90
11321;BMP180;5715;48.234;14.320;2023-04-28T03:45:04;98618.00;;;15.00
11321;BMP180;5715;48.234;14.320;2023-04-28T03:47:51;98615.00;;;14.80
11321;BMP180;5715;48.234;14.320;2023-04-28T03:50:39;98616.00;;;15.00
11321;BMP180;5715;48.234;14.320;2023-04-28T03:53:28;98613.00;;;14.90
11321;BMP180;5715;48.234;14.320;2023-04-28T03:56:16;98608.00;;;14.80
11321;BMP180;5715;48.234;14.320;2023-04-28T03:59:03;98610.00;;;14.90
11321;BMP180;5715;48.234;14.320;2023-04-28T04:01:51;98612.00;;;15.00
11321;BMP180;5715;48.234;14.320;2023-04-28T04:04:38;98608.00;;;15.00
11321;BMP180;5715;48.234;14.320;2023-04-28T04:07:26;98609.00;;;15.10
11321;BMP180;5715;48.234;14.320;2023-04-28T04:10:14;98606.00;;;15.00
11321;BMP180;5715;48.234;14.320;2023-04-28T04:13:01;98604.00;;;15.00
11321;BMP180;5715;48.234;14.320;2023-04-28T04:15:50;98609.00;;;15.00
11321;BMP180;5715;48.234;14.320;2023-04-28T04:18:39;98603.00;;;15.10
11321;BMP180;5715;48.234;14.320;2023-04-28T04:21:26;98593.00;;;15.10
11321;BMP180;5715;48.234;14.320;2023-04-28T04:24:14;98602.00;;;15.30
11321;BMP180;5715;48.234;14.320;2023-04-28T04:27:02;98602.00;;;15.30
11321;BMP180;5715;48.234;14.320;2023-04-28T04:29:49;98599.00;;;15.40
11321;BMP180;5715;48.234;14.320;2023-04-28T04:32:37;98599.00;;;15.50
11321;BMP180;5715;48.234;14.320;2023-04-28T04:35:25;98618.00;;;15.90
11321;BMP180;5715;48.234;14.320;2023-04-28T04:38:13;98615.00;;;16.30
11321;BMP180;5715;48.234;14.320;2023-04-28T04:41:00;98622.00;;;16.50
11321;BMP180;5715;48.234;14.320;2023-04-28T04:43:48;98622.00;;;17.00
11321;BMP180;5715;48.234;14.320;2023-04-28T04:46:35;98620.00;;;17.60
11321;BMP180;5715;48.234;14.320;2023-04-28T04:49:26;98612.00;;;17.90
11321;BMP180;5715;48.234;14.320;2023-04-28T04:52:13;98600.00;;;18.40
11321;BMP180;5715;48.234;14.320;2023-04-28T04:57:49;98604.00;;;18.80
11321;BMP180;5715;48.234;14.320;2023-04-28T05:00:37;98614.00;;;18.70
11321;BMP180;5715;48.234;14.320;2023-04-28T05:03:25;98604.00;;;18.70
11321;BMP180;5715;48.234;14.320;2023-04-28T05:06:12;98599.00;;;18.40
11321;BMP180;5715;48.234;14.320;2023-04-28T05:09:00;98596.00;;;18.50
11321;BMP180;5715;48.234;14.320;2023-04-28T05:11:48;98586.00;;;19.30
11321;BMP180;5715;48.234;14.320;2023-04-28T05:14:36;98580.00;;;19.80
11321;BMP180;5715;48.234;14.320;2023-04-28T05:17:24;98583.00;;;20.30
11321;BMP180;5715;48.234;14.320;2023-04-28T05:20:12;98586.00;;;21.30
11321;BMP180;5715;48.234;14.320;2023-04-28T05:22:59;98605.00;;;21.40
11321;BMP180;5715;48.234;14.320;2023-04-28T05:25:47;98610.00;;;21.50
11321;BMP180;5715;48.234;14.320;2023-04-28T05:28:34;98607.00;;;21.50
11321;BMP180;5715;48.234;14.320;2023-04-28T05:31:22;98613.00;;;20.90
11321;BMP180;5715;48.234;14.320;2023-04-28T05:34:10;98617.00;;;20.90
11321;BMP180;5715;48.234;14.320;2023-04-28T05:36:57;98621.00;;;20.60
11321;BMP180;5715;48.234;14.320;2023-04-28T05:39:45;98609.00;;;20.70
11321;BMP180;5715;48.234;14.320;2023-04-28T05:42:32;98603.00;;;20.80
11321;BMP180;5715;48.234;14.320;2023-04-28T05:45:20;98599.00;;;21.70
11321;BMP180;5715;48.234;14.320;2023-04-28T05:48:07;98593.00;;;22.20
11321;BMP180;5715;48.234;14.320;2023-04-28T05:50:55;98602.00;;;22.10
11321;BMP180;5715;48.234;14.320;2023-04-28T05:53:43;98602.00;;;22.10
11321;BMP180;5715;48.234;14.320;2023-04-28T05:56:30;98599.00;;;22.00
11321;BMP180;5715;48.234;14.320;2023-04-28T05:59:18;98594.00;;;21.30
11321;BMP180;5715;48.234;14.320;2023-04-28T06:02:06;98596.00;;;20.60
11321;BMP180;5715;48.234;14.320;2023-04-28T06:04:54;98594.00;;;20.40
11321;BMP180;5715;48.234;14.320;2023-04-28T06:07:43;98588.00;;;20.70
11321;BMP180;5715;48.234;14.320;2023-04-28T06:10:30;98576.00;;;20.40
11321;BMP180;5715;48.234;14.320;2023-04-28T06:13:18;98575.00;;;20.10
11321;BMP180;5715;48.234;14.320;2023-04-28T06:16:06;98571.00;;;20.00
11321;BMP180;5715;48.234;14.320;2023-04-28T06:18:54;98571.00;;;19.90
11321;BMP180;5715;48.234;14.320;2023-04-28T06:21:41;98562.00;;;19.70
11321;BMP180;5715;48.234;14.320;2023-04-28T06:24:29;98571.00;;;19.90
11321;BMP180;5715;48.234;14.320;2023-04-28T06:27:16;98561.00;;;19.60
11321;BMP180;5715;48.234;14.320;2023-04-28T06:30:05;98555.00;;;18.80
11321;BMP180;5715;48.234;14.320;2023-04-28T06:32:53;98560.00;;;19.10
11321;BMP180;5715;48.234;14.320;2023-04-28T06:35:40;98561.00;;;19.30
11321;BMP180;5715;48.234;14.320;2023-04-28T06:38:28;98562.00;;;19.20
11321;BMP180;5715;48.234;14.320;2023-04-28T06:41:16;98560.00;;;19.20
11321;BMP180;5715;48.234;14.320;2023-04-28T06:44:03;98549.00;;;18.60
11321;BMP180;5715;48.234;14.320;2023-04-28T06:46:51;98539.00;;;19.30
11321;BMP180;5715;48.234;14.320;2023-04-28T06:49:39;98549.00;;;19.70
11321;BMP180;5715;48.234;14.320;2023-04-28T06:52:27;98557.00;;;20.20
11321;BMP180;5715;48.234;14.320;2023-04-28T06:55:26;98553.00;;;19.80
11321;BMP180;5715;48.234;14.320;2023-04-28T06:58:13;98564.00;;;19.90
11321;BMP180;5715;48.234;14.320;2023-04-28T07:01:01;98573.00;;;20.40
11321;BMP180;5715;48.234;14.320;2023-04-28T07:03:50;98575.00;;;20.60
11321;BMP180;5715;48.234;14.320;2023-04-28T07:06:38;98567.00;;;20.60
11321;BMP180;5715;48.234;14.320;2023-04-28T07:09:25;98548.00;;;21.40
11321;BMP180;5715;48.234;14.320;2023-04-28T07:12:13;98552.00;;;21.50
11321;BMP180;5715;48.234;14.320;2023-04-28T07:15:01;98555.00;;;21.00
11321;BMP180;5715;48.234;14.320;2023-04-28T07:17:48;98559.00;;;20.90
11321;BMP180;5715;48.234;14.320;2023-04-28T07:20:37;98560.00;;;21.10
11321;BMP180;5715;48.234;14.320;2023-04-28T07:23:25;98560.00;;;20.80
11321;BMP180;5715;48.234;14.320;2023-04-28T07:26:12;98546.00;;;21.30
11321;BMP180;5715;48.234;14.320;2023-04-28T07:29:02;98553.00;;;21.30
11321;BMP180;5715;48.234;14.320;2023-04-28T07:31:50;98541.00;;;20.50
11321;BMP180;5715;48.234;14.320;2023-04-28T07:34:37;98555.00;;;21.50
11321;BMP180;5715;48.234;14.320;2023-04-28T07:37:25;98546.00;;;21.40
11321;BMP180;5715;48.234;14.320;2023-04-28T07:40:13;98544.00;;;21.70
11321;BMP180;5715;48.234;14.320;2023-04-28T07:43:00;98536.00;;;21.80
11321;BMP180;5715;48.234;14.320;2023-04-28T07:45:48;98541.00;;;22.00
11321;BMP180;5715;48.234;14.320;2023-04-28T07:48:36;98535.00;;;21.80
11321;BMP180;5715;48.234;14.320;2023-04-28T07:51:24;98524.00;;;22.20
11321;BMP180;5715;48.234;14.320;2023-04-28T07:54:11;98527.00;;;22.30
11321;BMP180;5715;48.234;14.320;2023-04-28T07:56:59;98529.00;;;22.20
11321;BMP180;5715;48.234;14.320;2023-04-28T07:59:47;98529.00;;;22.60
11321;BMP180;5715;48.234;14.320;2023-04-28T08:02:34;98530.00;;;22.70
11321;BMP180;5715;48.234;14.320;2023-04-28T08:05:22;98526.00;;;22.90
11321;BMP180;5715;48.234;14.320;2023-04-28T08:08:10;98517.00;;;23.10
11321;BMP180;5715;48.234;14.320;2023-04-28T08:10:58;98517.00;;;23.10
11321;BMP180;5715;48.234;14.320;2023-04-28T08:13:45;98523.00;;;23.30
11321;BMP180;5715;48.234;14.320;2023-04-28T08:16:33;98517.00;;;23.10
11321;BMP180;5715;48.234;14.320;2023-04-28T08:19:24;98508.00;;;23.00
11321;BMP180;5715;48.234;14.320;2023-04-28T08:22:12;98503.00;;;23.20
11321;BMP180;5715;48.234;14.320;2023-04-28T08:25:00;98498.00;;;23.20
11321;BMP180;5715;48.234;14.320;2023-04-28T08:27:47;98485.00;;;23.10
11321;BMP180;5715;48.234;14.320;2023-04-28T08:30:35;98489.00;;;23.00
11321;BMP180;5715;48.234;14.320;2023-04-28T08:33:25;98497.00;;;23.10
11321;BMP180;5715;48.234;14.320;2023-04-28T08:36:13;98489.00;;;23.00
11321;BMP180;5715;48.234;14.320;2023-04-28T08:39:01;98493.00;;;22.90
11321;BMP180;5715;48.234;14.320;2023-04-28T08:41:50;98492.00;;;23.20
11321;BMP180;5715;48.234;14.320;2023-04-28T08:44:39;98486.00;;;23.60
11321;BMP180;5715;48.234;14.320;2023-04-28T08:47:36;98484.00;;;23.80
11321;BMP180;5715;48.234;14.320;2023-04-28T08:50:34;98479.00;;;24.10
11321;BMP180;5715;48.234;14.320;2023-04-28T08:53:24;98484.00;;;24.20
11321;BMP180;5715;48.234;14.320;2023-04-28T08:56:15;98477.00;;;23.90
11321;BMP180;5715;48.234;14.320;2023-04-28T08:59:04;98473.00;;;24.30
11321;BMP180;5715;48.234;14.320;2023-04-28T09:01:52;98473.00;;;24.40
11321;BMP180;5715;48.234;14.320;2023-04-28T09:04:40;98463.00;;;24.50
11321;BMP180;5715;48.234;14.320;2023-04-28T09:07:28;98468.00;;;25.00
11321;BMP180;5715;48.234;14.320;2023-04-28T09:10:21;98447.00;;;25.00
11321;BMP180;5715;48.234;14.320;2023-04-28T09:13:24;98458.00;;;25.60
11321;BMP180;5715;48.234;14.320;2023-04-28T09:16:12;98456.00;;;26.00
11321;BMP180;5715;48.234;14.320;2023-04-28T09:18:59;98455.00;;;26.10
11321;BMP180;5715;48.234;14.320;2023-04-28T09:21:55;98452.00;;;26.70
11321;BMP180;5715;48.234;14.320;2023-04-28T09:24:43;98441.00;;;26.50
11321;BMP180;5715;48.234;14.320;2023-04-28T09:27:30;98451.00;;;27.10
11321;BMP180;5715;48.234;14.320;2023-04-28T09:30:18;98451.00;;;27.20
11321;BMP180;5715;48.234;14.320;2023-04-28T09:33:07;98438.00;;;27.00
11321;BMP180;5715;48.234;14.320;2023-04-28T09:35:57;98442.00;;;26.60
11321;BMP180;5715;48.234;14.320;2023-04-28T09:38:45;98445.00;;;26.50
11321;BMP180;5715;48.234;14.320;2023-04-28T09:41:38;98431.00;;;26.30
11321;BMP180;5715;48.234;14.320;2023-04-28T09:44:26;98429.00;;;26.40
11321;BMP180;5715;48.234;14.320;2023-04-28T09:47:20;98429.00;;;26.10
11321;BMP180;5715;48.234;14.320;2023-04-28T09:50:13;98425.00;;;25.20
11321;BMP180;5715;48.234;14.320;2023-04-28T09:53:01;98417.00;;;24.70
11321;BMP180;5715;48.234;14.320;2023-04-28T09:55:53;98426.00;;;24.30
11321;BMP180;5715;48.234;14.320;2023-04-28T09:58:43;98431.00;;;24.50
11321;BMP180;5715;48.234;14.320;2023-04-28T10:01:39;98425.00;;;24.70
11321;BMP180;5715;48.234;14.320;2023-04-28T10:04:27;98426.00;;;24.70
11321;BMP180;5715;48.234;14.320;2023-04-28T10:07:21;98423.00;;;24.50
11321;BMP180;5715;48.234;14.320;2023-04-28T10:10:09;98424.00;;;24.50
11321;BMP180;5715;48.234;14.320;2023-04-28T10:12:57;98425.00;;;24.90
11321;BMP180;5715;48.234;14.320;2023-04-28T10:15:47;98419.00;;;24.90
11321;BMP180;5715;48.234;14.320;2023-04-28T10:18:36;98416.00;;;24.90
11321;BMP180;5715;48.234;14.320;2023-04-28T10:21:27;98415.00;;;24.90
11321;BMP180;5715;48.234;14.320;2023-04-28T10:24:25;98408.00;;;25.00
11321;BMP180;5715;48.234;14.320;2023-04-28T10:27:16;98402.00;;;24.90
11321;BMP180;5715;48.234;14.320;2023-04-28T10:30:17;98392.00;;;24.70
11321;BMP180;5715;48.234;14.320;2023-04-28T10:36:04;98386.00;;;24.50
11321;BMP180;5715;48.234;14.320;2023-04-28T10:39:09;98391.00;;;24.70
11321;BMP180;5715;48.234;14.320;2023-04-28T10:42:01;98388.00;;;24.70
11321;BMP180;5715;48.234;14.320;2023-04-28T10:44:49;98385.00;;;24.50
11321;BMP180;5715;48.234;14.320;2023-04-28T10:47:59;98381.00;;;24.60
11321;BMP180;5715;48.234;14.320;2023-04-28T10:57:14;98381.00;;;24.60
11321;BMP180;5715;48.234;14.320;2023-04-28T11:00:28;98372.00;;;24.60
11321;BMP180;5715;48.234;14.320;2023-04-28T11:06:39;98372.00;;;24.40
11321;BMP180;5715;48.234;14.320;2023-04-28T11:12:18;98376.00;;;24.10
11321;BMP180;5715;48.234;14.320;2023-04-28T11:15:11;98384.00;;;24.10
11321;BMP180;5715;48.234;14.320;2023-04-28T11:18:09;98389.00;;;24.10
11321;BMP180;5715;48.234;14.320;2023-04-28T11:21:05;98392.00;;;24.10
11321;BMP180;5715;48.234;14.320;2023-04-28T11:23:52;98402.00;;;23.80
11321;BMP180;5715;48.234;14.320;2023-04-28T11:26:40;98400.00;;;24.10
11321;BMP180;5715;48.234;14.320;2023-04-28T11:29:34;98404.00;;;24.20
11321;BMP180;5715;48.234;14.320;2023-04-28T11:32:33;98408.00;;;24.20
11321;BMP180;5715;48.234;14.320;2023-04-28T11:35:21;98410.00;;;24.10
11321;BMP180;5715;48.234;14.320;2023-04-28T11:38:09;98413.00;;;24.10
11321;BMP180;5715;48.234;14.320;2023-04-28T11:40:57;98420.00;;;24.00
11321;BMP180;5715;48.234;14.320;2023-04-28T11:43:45;98419.00;;;24.10
11321;BMP180;5715;48.234;14.320;2023-04-28T11:46:34;98417.00;;;24.00
11321;BMP180;5715;48.234;14.320;2023-04-28T11:49:22;98428.00;;;24.00
11321;BMP180;5715;48.234;14.320;2023-04-28T11:52:17;98437.00;;;23.80
11321;BMP180;5715;48.234;14.320;2023-04-28T11:55:05;98427.00;;;23.70
11321;BMP180;5715;48.234;14.320;2023-04-28T11:58:19;98435.00;;;23.70
11321;BMP180;5715;48.234;14.320;2023-04-28T12:01:12;98436.00;;;23.50
11321;BMP180;5715;48.234;14.320;2023-04-28T12:04:03;98427.00;;;23.40
11321;BMP180;5715;48.234;14.320;2023-04-28T12:07:16;98432.00;;;23.30
11321;BMP180;5715;48.234;14.320;2023-04-28T12:10:12;98439.00;;;23.40
11321;BMP180;5715;48.234;14.320;2023-04-28T12:13:15;98444.00;;;23.30
11321;BMP180;5715;48.234;14.320;2023-04-28T12:16:04;98445.00;;;23.10
11321;BMP180;5715;48.234;14.320;2023-04-28T12:18:58;98440.00;;;23.00
11321;BMP180;5715;48.234;14.320;2023-04-28T12:22:05;98452.00;;;22.70
11321;BMP180;5715;48.234;14.320;2023-04-28T12:25:07;98455.00;;;22.70
11321;BMP180;5715;48.234;14.320;2023-04-28T12:28:06;98455.00;;;22.60
11321;BMP180;5715;48.234;14.320;2023-04-28T12:31:06;98447.00;;;22.60
11321;BMP180;5715;48.234;14.320;2023-04-28T12:33:57;98454.00;;;22.50
11321;BMP180;5715;48.234;14.320;2023-04-28T12:36:45;98463.00;;;22.40
11321;BMP180;5715;48.234;14.320;2023-04-28T12:39:35;98458.00;;;22.60
11321;BMP180;5715;48.234;14.320;2023-04-28T12:42:26;98463.00;;;22.50
11321;BMP180;5715;48.234;14.320;2023-04-28T12:45:13;98468.00;;;22.50
11321;BMP180;5715;48.234;14.320;2023-04-28T12:48:05;98467.00;;;22.40
11321;BMP180;5715;48.234;14.320;2023-04-28T12:50:53;98467.00;;;22.40
11321;BMP180;5715;48.234;14.320;2023-04-28T12:53:41;98466.00;;;22.20
11321;BMP180;5715;48.234;14.320;2023-04-28T12:56:30;98461.00;;;22.10
11321;BMP180;5715;48.234;14.320;2023-04-28T12:59:18;98462.00;;;22.10
11321;BMP180;5715;48.234;14.320;2023-04-28T13:02:06;98455.00;;;22.00
11321;BMP180;5715;48.234;14.320;2023-04-28T13:04:54;98451.00;;;21.90
11321;BMP180;5715;48.234;14.320;2023-04-28T13:07:42;98450.00;;;22.10
11321;BMP180;5715;48.234;14.320;2023-04-28T13:10:30;98452.00;;;22.10
11321;BMP180;5715;48.234;14.320;2023-04-28T13:13:17;98438.00;;;22.10
11321;BMP180;5715;48.234;14.320;2023-04-28T13:16:05;98437.00;;;22.20
11321;BMP180;5715;48.234;14.320;2023-04-28T13:18:53;98433.00;;;22.30
11321;BMP180;5715;48.234;14.320;2023-04-28T13:21:40;98432.00;;;22.30
11321;BMP180;5715;48.234;14.320;2023-04-28T13:24:29;98412.00;;;22.40
11321;BMP180;5715;48.234;14.320;2023-04-28T13:27:17;98407.00;;;22.20
11321;BMP180;5715;48.234;14.320;2023-04-28T13:30:05;98410.00;;;22.30
11321;BMP180;5715;48.234;14.320;2023-04-28T13:32:54;98400.00;;;22.00
11321;BMP180;5715;48.234;14.320;2023-04-28T13:35:43;98386.00;;;22.10
11321;BMP180;5715;48.234;14.320;2023-04-28T13:38:32;98368.00;;;21.90
11321;BMP180;5715;48.234;14.320;2023-04-28T13:41:19;98335.00;;;22.10
11321;BMP180;5715;48.234;14.320;2023-04-28T13:44:07;98313.00;;;22.00
11321;BMP180;5715;48.234;14.320;2023-04-28T13:46:56;98329.00;;;22.20
11321;BMP180;5715;48.234;14.320;2023-04-28T13:49:43;98350.00;;;22.50
11321;BMP180;5715;48.234;14.320;2023-04-28T13:52:31;98366.00;;;22.30
11321;BMP180;5715;48.234;14.320;2023-04-28T13:55:18;98383.00;;;22.20
11321;BMP180;5715;48.234;14.320;2023-04-28T13:58:13;98382.00;;;22.30
11321;BMP180;5715;48.234;14.320;2023-04-28T14:01:01;98386.00;;;22.40
11321;BMP180;5715;48.234;14.320;2023-04-28T14:03:50;98396.00;;;22.00
11321;BMP180;5715;48.234;14.320;2023-04-28T14:06:38;98398.00;;;21.80
11321;BMP180;5715;48.234;14.320;2023-04-28T14:09:26;98396.00;;;21.70
11321;BMP180;5715;48.234;14.320;2023-04-28T14:12:13;98391.00;;;21.70
11321;BMP180;5715;48.234;14.320;2023-04-28T14:15:06;98390.00;;;21.70
11321;BMP180;5715;48.234;14.320;2023-04-28T14:17:54;98375.00;;;22.00
11321;BMP180;5715;48.234;14.320;2023-04-28T14:20:41;98392.00;;;21.80
11321;BMP180;5715;48.234;14.320;2023-04-28T14:23:30;98399.00;;;21.40
11321;BMP180;5715;48.234;14.320;2023-04-28T14:26:17;98390.00;;;21.40
11321;BMP180;5715;48.234;14.320;2023-04-28T14:29:05;98377.00;;;21.60
11321;BMP180;5715;48.234;14.320;2023-04-28T14:31:52;98358.00;;;21.60
11321;BMP180;5715;48.234;14.320;2023-04-28T14:34:40;98355.00;;;21.50
11321;BMP180;5715;48.234;14.320;2023-04-28T14:37:28;98350.00;;;21.40
11321;BMP180;5715;48.234;14.320;2023-04-28T14:40:15;98348.00;;;21.60
11321;BMP180;5715;48.234;14.320;2023-04-28T14:43:03;98340.00;;;21.70
11321;BMP180;5715;48.234;14.320;2023-04-28T14:45:51;98351.00;;;21.70
11321;BMP180;5715;48.234;14.320;2023-04-28T14:48:39;98342.00;;;21.80
11321;BMP180;5715;48.234;14.320;2023-04-28T14:51:26;98339.00;;;22.10
11321;BMP180;5715;48.234;14.320;2023-04-28T14:54:15;98334.00;;;22.20
11321;BMP180;5715;48.234;14.320;2023-04-28T14:57:02;98335.00;;;22.20
11321;BMP180;5715;48.234;14.320;2023-04-28T14:59:50;98342.00;;;22.10
11321;BMP180;5715;48.234;14.320;2023-04-28T15:02:38;98345.00;;;22.10
11321;BMP180;5715;48.234;14.320;2023-04-28T15:05:26;98350.00;;;22.10
11321;BMP180;5715;48.234;14.320;2023-04-28T15:08:13;98351.00;;;22.20
11321;BMP180;5715;48.234;14.320;2023-04-28T15:11:01;98350.00;;;22.10
11321;BMP180;5715;48.234;14.320;2023-04-28T15:13:49;98356.00;;;21.90
11321;BMP180;5715;48.234;14.320;2023-04-28T15:16:37;98349.00;;;22.00
11321;BMP180;5715;48.234;14.320;2023-04-28T15:19:25;98354.00;;;21.70
11321;BMP180;5715;48.234;14.320;2023-04-28T15:22:13;98364.00;;;21.60
11321;BMP180;5715;48.234;14.320;2023-04-28T15:25:01;98358.00;;;21.60
11321;BMP180;5715;48.234;14.320;2023-04-28T15:27:49;98355.00;;;21.40
11321;BMP180;5715;48.234;14.320;2023-04-28T15:30:37;98339.00;;;21.60
11321;BMP180;5715;48.234;14.320;2023-04-28T15:33:26;98335.00;;;21.50
11321;BMP180;5715;48.234;14.320;2023-04-28T15:36:15;98321.00;;;21.30
11321;BMP180;5715;48.234;14.320;2023-04-28T15:39:07;98322.00;;;21.40
11321;BMP180;5715;48.234;14.320;2023-04-28T15:41:55;98313.00;;;21.40
11321;BMP180;5715;48.234;14.320;2023-04-28T15:44:42;98319.00;;;21.60
11321;BMP180;5715;48.234;14.320;2023-04-28T15:47:30;98307.00;;;21.60
11321;BMP180;5715;48.234;14.320;2023-04-28T15:50:20;98316.00;;;21.50
11321;BMP180;5715;48.234;14.320;2023-04-28T15:53:08;98299.00;;;21.40
11321;BMP180;5715;48.234;14.320;2023-04-28T15:55:58;98294.00;;;21.30
11321;BMP180;5715;48.234;14.320;2023-04-28T15:58:46;98310.00;;;21.20
11321;BMP180;5715;48.234;14.320;2023-04-28T16:01:33;98304.00;;;21.10
11321;BMP180;5715;48.234;14.320;2023-04-28T16:04:21;98309.00;;;21.10
11321;BMP180;5715;48.234;14.320;2023-04-28T16:07:09;98300.00;;;21.20
11321;BMP180;5715;48.234;14.320;2023-04-28T16:09:56;98307.00;;;21.10
11321;BMP180;5715;48.234;14.320;2023-04-28T16:12:45;98295.00;;;21.00
11321;BMP180;5715;48.234;14.320;2023-04-28T16:15:33;98301.00;;;20.90
11321;BMP180;5715;48.234;14.320;2023-04-28T16:18:21;98306.00;;;20.90
11321;BMP180;5715;48.234;14.320;2023-04-28T16:21:08;98303.00;;;20.70
11321;BMP180;5715;48.234;14.320;2023-04-28T16:23:56;98301.00;;;20.70
11321;BMP180;5715;48.234;14.320;2023-04-28T16:26:44;98302.00;;;20.70
11321;BMP180;5715;48.234;14.320;2023-04-28T16:29:31;98303.00;;;20.60
11321;BMP180;5715;48.234;14.320;2023-04-28T16:32:19;98297.00;;;20.50